Terminal Aerodrome Forecast
Issued by NWS

Home | Current Version | Previous Version | Text Only | Print | Product List | Glossary On
Versions: 1 2 3 4 5 6 7 8 9 10 11 12 13 14 15 16 17
000
FTUS41 KBGM 300800 AAA
TAFELM
TAF AMD
KELM 300857Z 3009/3106 VRB04KT 3SM -SHSN BR OVC025
     FM301000 29010G20KT 4SM -SHSN OVC018
     FM301400 31012G22KT P6SM -SHSN OVC022
     FM310000 30010G20KT P6SM SCT025=

USA.gov is the U.S. government's official web portal to all federal, state and local government web resources and services.